Weather at Rollins Airport [CLOSED]

Public forecast

Using degrees Fahrenheit for public forecast. Weather courtesy of forecast.io.

Closest aviation weather report (METAR) to Rollins Airport

Closest report is DeKalb Peachtree Airport, 5.0 nm (9.2 km) NE. Retrieved 2022/08/13 17:53 UTC (44 minutes ago):

KPDK 131753Z 00000KT 10SM SCT050 SCT065 27/19 A3012 RMK AO2 SLP183 T02670194 10267 20222 58008

Closest aviation forecast (TAF) to Rollins Airport

Closest forecast is DeKalb Peachtree Airport, 5.0 nm (9.2 km) NE. Retrieved 2022/08/13 18:22 UTC (15 minutes ago):

TAF KPDK 131720Z 1318/1418 11008KT P6SM FEW030 SCT040 FM140200 12004KT P6SM FEW080 FEW250 FM140500 VRB03KT P6SM FEW100 SCT250 FM141400 16004KT P6SM FEW030